sensor_id;sensor_type;location;lat;lon;timestamp;pressure;altitude;pressure_sealevel;temperature;humidity
74065;BME280;62421;51.412;5.432;2022-12-07T00:01:39;101733.59;;;2.87;100.00
74065;BME280;62421;51.412;5.432;2022-12-07T00:04:06;101734.56;;;2.85;100.00
74065;BME280;62421;51.412;5.432;2022-12-07T00:06:32;101739.91;;;2.83;100.00
74065;BME280;62421;51.412;5.432;2022-12-07T00:08:59;101730.25;;;2.79;100.00
74065;BME280;62421;51.412;5.432;2022-12-07T00:11:24;101739.19;;;2.75;100.00
74065;BME280;62421;51.412;5.432;2022-12-07T00:13:54;101730.47;;;2.70;100.00
74065;BME280;62421;51.412;5.432;2022-12-07T00:16:22;101725.31;;;2.64;100.00
74065;BME280;62421;51.412;5.432;2022-12-07T00:18:47;101721.06;;;2.58;100.00
74065;BME280;62421;51.412;5.432;2022-12-07T00:21:19;101722.06;;;2.51;100.00
74065;BME280;62421;51.412;5.432;2022-12-07T00:23:46;101719.63;;;2.43;100.00
74065;BME280;62421;51.412;5.432;2022-12-07T00:26:17;101719.75;;;2.37;100.00
74065;BME280;62421;51.412;5.432;2022-12-07T00:28:47;101726.88;;;2.34;100.00
74065;BME280;62421;51.412;5.432;2022-12-07T00:31:14;101713.72;;;2.29;100.00
74065;BME280;62421;51.412;5.432;2022-12-07T00:33:39;101718.28;;;2.24;100.00
74065;BME280;62421;51.412;5.432;2022-12-07T00:36:07;101709.53;;;2.19;100.00
74065;BME280;62421;51.412;5.432;2022-12-07T00:38:35;101711.41;;;2.15;100.00
74065;BME280;62421;51.412;5.432;2022-12-07T00:41:03;101707.94;;;2.10;100.00
74065;BME280;62421;51.412;5.432;2022-12-07T00:43:30;101709.81;;;2.07;100.00
74065;BME280;62421;51.412;5.432;2022-12-07T00:45:55;101705.41;;;2.05;100.00
74065;BME280;62421;51.412;5.432;2022-12-07T00:48:21;101708.97;;;2.04;100.00
74065;BME280;62421;51.412;5.432;2022-12-07T00:50:47;101710.72;;;2.04;100.00
74065;BME280;62421;51.412;5.432;2022-12-07T00:53:12;101699.34;;;2.00;100.00
74065;BME280;62421;51.412;5.432;2022-12-07T00:55:38;101690.50;;;2.00;100.00
74065;BME280;62421;51.412;5.432;2022-12-07T00:58:04;101709.03;;;2.00;100.00
74065;BME280;62421;51.412;5.432;2022-12-07T01:00:30;101701.94;;;2.02;100.00
74065;BME280;62421;51.412;5.432;2022-12-07T01:02:55;101691.31;;;2.03;100.00
74065;BME280;62421;51.412;5.432;2022-12-07T01:05:21;101701.06;;;2.01;100.00
74065;BME280;62421;51.412;5.432;2022-12-07T01:07:46;101695.78;;;2.01;100.00
74065;BME280;62421;51.412;5.432;2022-12-07T01:10:12;101694.03;;;2.00;100.00
74065;BME280;62421;51.412;5.432;2022-12-07T01:12:38;101701.09;;;2.00;100.00
74065;BME280;62421;51.412;5.432;2022-12-07T01:15:04;101698.41;;;2.01;100.00
74065;BME280;62421;51.412;5.432;2022-12-07T01:17:30;101704.63;;;2.00;100.00
74065;BME280;62421;51.412;5.432;2022-12-07T01:19:55;101699.38;;;1.97;100.00
74065;BME280;62421;51.412;5.432;2022-12-07T01:22:20;101706.50;;;1.95;100.00
74065;BME280;62421;51.412;5.432;2022-12-07T01:24:46;101705.69;;;1.92;100.00
74065;BME280;62421;51.412;5.432;2022-12-07T01:27:12;101704.00;;;1.88;100.00
74065;BME280;62421;51.412;5.432;2022-12-07T01:29:38;101703.19;;;1.84;100.00
74065;BME280;62421;51.412;5.432;2022-12-07T01:32:03;101705.06;;;1.79;100.00
74065;BME280;62421;51.412;5.432;2022-12-07T01:34:29;101704.19;;;1.78;100.00
74065;BME280;62421;51.412;5.432;2022-12-07T01:36:54;101703.25;;;1.81;100.00
74065;BME280;62421;51.412;5.432;2022-12-07T01:39:19;101708.50;;;1.84;100.00
74065;BME280;62421;51.412;5.432;2022-12-07T01:41:45;101704.84;;;1.90;100.00
74065;BME280;62421;51.412;5.432;2022-12-07T01:47:08;101708.03;;;2.05;100.00
74065;BME280;62421;51.412;5.432;2022-12-07T01:49:45;101709.66;;;2.13;100.00
74065;BME280;62421;51.412;5.432;2022-12-07T01:52:16;101706.84;;;2.20;100.00
74065;BME280;62421;51.412;5.432;2022-12-07T01:54:46;101706.69;;;2.28;100.00
74065;BME280;62421;51.412;5.432;2022-12-07T01:57:14;101699.50;;;2.33;100.00
74065;BME280;62421;51.412;5.432;2022-12-07T01:59:45;101697.63;;;2.38;100.00
74065;BME280;62421;51.412;5.432;2022-12-07T02:02:19;101712.53;;;2.42;100.00
74065;BME280;62421;51.412;5.432;2022-12-07T02:04:46;101716.03;;;2.44;100.00
74065;BME280;62421;51.412;5.432;2022-12-07T02:07:11;101713.38;;;2.44;100.00
74065;BME280;62421;51.412;5.432;2022-12-07T02:09:37;101716.00;;;2.46;100.00
74065;BME280;62421;51.412;5.432;2022-12-07T02:12:03;101697.38;;;2.49;100.00
74065;BME280;62421;51.412;5.432;2022-12-07T02:14:29;101692.03;;;2.51;100.00
74065;BME280;62421;51.412;5.432;2022-12-07T02:28:05;101686.63;;;2.55;100.00
74065;BME280;62421;51.412;5.432;2022-12-07T02:30:35;101698.94;;;2.58;100.00
74065;BME280;62421;51.412;5.432;2022-12-07T02:33:07;101696.28;;;2.58;100.00
74065;BME280;62421;51.412;5.432;2022-12-07T02:35:48;101698.03;;;2.59;100.00
74065;BME280;62421;51.412;5.432;2022-12-07T02:38:35;101698.16;;;2.54;100.00
74065;BME280;62421;51.412;5.432;2022-12-07T02:41:06;101703.63;;;2.46;100.00
74065;BME280;62421;51.412;5.432;2022-12-07T02:43:36;101702.06;;;2.38;100.00
74065;BME280;62421;51.412;5.432;2022-12-07T02:46:07;101693.41;;;2.30;100.00
74065;BME280;62421;51.412;5.432;2022-12-07T02:48:33;101691.72;;;2.25;100.00
74065;BME280;62421;51.412;5.432;2022-12-07T02:50:59;101691.84;;;2.19;100.00
74065;BME280;62421;51.412;5.432;2022-12-07T02:53:43;101692.91;;;2.11;100.00
74065;BME280;62421;51.412;5.432;2022-12-07T03:12:27;101695.75;;;2.03;100.00
74065;BME280;62421;51.412;5.432;2022-12-07T03:15:26;101695.66;;;2.08;100.00
74065;BME280;62421;51.412;5.432;2022-12-07T03:17:54;101693.84;;;2.08;100.00
74065;BME280;62421;51.412;5.432;2022-12-07T03:20:22;101697.44;;;2.05;100.00
74065;BME280;62421;51.412;5.432;2022-12-07T03:22:49;101693.13;;;2.01;100.00
74065;BME280;62421;51.412;5.432;2022-12-07T03:25:16;101693.25;;;1.95;100.00
74065;BME280;62421;51.412;5.432;2022-12-07T03:30:15;101704.06;;;1.84;100.00
74065;BME280;62421;51.412;5.432;2022-12-07T03:32:54;101680.31;;;1.80;100.00
74065;BME280;62421;51.412;5.432;2022-12-07T03:35:31;101682.09;;;1.81;100.00
74065;BME280;62421;51.412;5.432;2022-12-07T03:38:24;101680.28;;;1.81;100.00
74065;BME280;62421;51.412;5.432;2022-12-07T03:41:03;101674.09;;;1.82;100.00
74065;BME280;62421;51.412;5.432;2022-12-07T03:43:29;101677.56;;;1.84;100.00
74065;BME280;62421;51.412;5.432;2022-12-07T03:48:37;101675.00;;;1.81;100.00
74065;BME280;62421;51.412;5.432;2022-12-07T03:51:13;101672.41;;;1.78;100.00
74065;BME280;62421;51.412;5.432;2022-12-07T03:53:47;101670.59;;;1.80;100.00
74065;BME280;62421;51.412;5.432;2022-12-07T03:56:14;101686.34;;;1.87;100.00
74065;BME280;62421;51.412;5.432;2022-12-07T03:58:40;101698.53;;;1.95;100.00
74065;BME280;62421;51.412;5.432;2022-12-07T04:01:06;101698.41;;;2.03;100.00
74065;BME280;62421;51.412;5.432;2022-12-07T04:03:32;101697.34;;;2.10;100.00
74065;BME280;62421;51.412;5.432;2022-12-07T04:05:57;101693.72;;;2.14;100.00
74065;BME280;62421;51.412;5.432;2022-12-07T04:08:24;101692.78;;;2.17;100.00
74065;BME280;62421;51.412;5.432;2022-12-07T04:10:50;101679.50;;;2.18;100.00
74065;BME280;62421;51.412;5.432;2022-12-07T04:13:15;101680.34;;;2.20;100.00
74065;BME280;62421;51.412;5.432;2022-12-07T04:15:40;101678.56;;;2.21;100.00
74065;BME280;62421;51.412;5.432;2022-12-07T04:18:06;101685.63;;;2.22;100.00
74065;BME280;62421;51.412;5.432;2022-12-07T04:20:31;101682.91;;;2.23;100.00
74065;BME280;62421;51.412;5.432;2022-12-07T04:22:56;101692.56;;;2.28;100.00
74065;BME280;62421;51.412;5.432;2022-12-07T04:25:22;101693.38;;;2.31;100.00
74065;BME280;62421;51.412;5.432;2022-12-07T04:27:47;101690.63;;;2.36;100.00
74065;BME280;62421;51.412;5.432;2022-12-07T04:30:12;101687.00;;;2.38;100.00
74065;BME280;62421;51.412;5.432;2022-12-07T04:32:38;101686.03;;;2.42;100.00
74065;BME280;62421;51.412;5.432;2022-12-07T04:35:04;101672.72;;;2.45;100.00
74065;BME280;62421;51.412;5.432;2022-12-07T04:37:29;101676.25;;;2.46;100.00
74065;BME280;62421;51.412;5.432;2022-12-07T04:39:55;101677.97;;;2.47;100.00
74065;BME280;62421;51.412;5.432;2022-12-07T04:42:20;101675.31;;;2.47;100.00
74065;BME280;62421;51.412;5.432;2022-12-07T04:44:45;101668.28;;;2.48;100.00
74065;BME280;62421;51.412;5.432;2022-12-07T04:47:11;101673.50;;;2.49;100.00
74065;BME280;62421;51.412;5.432;2022-12-07T04:49:36;101664.59;;;2.52;100.00
74065;BME280;62421;51.412;5.432;2022-12-07T04:52:01;101660.13;;;2.54;100.00
74065;BME280;62421;51.412;5.432;2022-12-07T04:54:27;101662.75;;;2.57;100.00
74065;BME280;62421;51.412;5.432;2022-12-07T04:56:52;101667.94;;;2.60;100.00
74065;BME280;62421;51.412;5.432;2022-12-07T04:59:18;101665.25;;;2.63;100.00
74065;BME280;62421;51.412;5.432;2022-12-07T05:01:43;101670.47;;;2.66;100.00
74065;BME280;62421;51.412;5.432;2022-12-07T05:04:09;101664.28;;;2.67;100.00
74065;BME280;62421;51.412;5.432;2022-12-07T05:06:35;101666.88;;;2.69;100.00
74065;BME280;62421;51.412;5.432;2022-12-07T05:09:01;101670.31;;;2.72;100.00
74065;BME280;62421;51.412;5.432;2022-12-07T05:11:26;101672.94;;;2.74;100.00
74065;BME280;62421;51.412;5.432;2022-12-07T05:14:15;101671.97;;;2.78;100.00
74065;BME280;62421;51.412;5.432;2022-12-07T05:16:42;101681.75;;;2.76;100.00
74065;BME280;62421;51.412;5.432;2022-12-07T05:19:08;101663.22;;;2.73;100.00
74065;BME280;62421;51.412;5.432;2022-12-07T05:21:34;101661.53;;;2.70;100.00
74065;BME280;62421;51.412;5.432;2022-12-07T05:24:00;101650.91;;;2.70;100.00
74065;BME280;62421;51.412;5.432;2022-12-07T05:26:26;101657.94;;;2.73;100.00
74065;BME280;62421;51.412;5.432;2022-12-07T05:28:52;101659.69;;;2.74;100.00
74065;BME280;62421;51.412;5.432;2022-12-07T05:31:18;101658.81;;;2.73;100.00
74065;BME280;62421;51.412;5.432;2022-12-07T05:33:44;101658.81;;;2.73;100.00
74065;BME280;62421;51.412;5.432;2022-12-07T05:36:09;101653.53;;;2.72;100.00
74065;BME280;62421;51.412;5.432;2022-12-07T05:38:34;101658.88;;;2.70;100.00
74065;BME280;62421;51.412;5.432;2022-12-07T05:41:04;101657.22;;;2.66;100.00
74065;BME280;62421;51.412;5.432;2022-12-07T05:43:30;101655.53;;;2.62;100.00
74065;BME280;62421;51.412;5.432;2022-12-07T05:45:56;101658.31;;;2.56;100.00
74065;BME280;62421;51.412;5.432;2022-12-07T05:48:22;101662.00;;;2.50;100.00
74065;BME280;62421;51.412;5.432;2022-12-07T05:50:48;101658.66;;;2.42;100.00
74065;BME280;62421;51.412;5.432;2022-12-07T05:53:13;101655.34;;;2.32;100.00
74065;BME280;62421;51.412;5.432;2022-12-07T05:55:39;101644.09;;;2.22;100.00
74065;BME280;62421;51.412;5.432;2022-12-07T05:58:04;101646.00;;;2.16;100.00
74065;BME280;62421;51.412;5.432;2022-12-07T06:00:48;101637.38;;;2.06;100.00
74065;BME280;62421;51.412;5.432;2022-12-07T06:03:13;101647.25;;;1.99;100.00
74065;BME280;62421;51.412;5.432;2022-12-07T06:05:39;101650.00;;;1.95;100.00
74065;BME280;62421;51.412;5.432;2022-12-07T06:08:04;101646.47;;;1.96;100.00
74065;BME280;62421;51.412;5.432;2022-12-07T06:10:29;101648.28;;;1.92;100.00
74065;BME280;62421;51.412;5.432;2022-12-07T06:12:54;101655.44;;;1.87;100.00
74065;BME280;62421;51.412;5.432;2022-12-07T06:15:20;101652.00;;;1.83;100.00
74065;BME280;62421;51.412;5.432;2022-12-07T06:17:47;101651.25;;;1.77;100.00
74065;BME280;62421;51.412;5.432;2022-12-07T06:20:12;101657.53;;;1.73;100.00
74065;BME280;62421;51.412;5.432;2022-12-07T06:22:38;101653.97;;;1.74;100.00
74065;BME280;62421;51.412;5.432;2022-12-07T06:25:03;101665.38;;;1.77;100.00
74065;BME280;62421;51.412;5.432;2022-12-07T06:27:29;101659.22;;;1.77;100.00
74065;BME280;62421;51.412;5.432;2022-12-07T06:29:54;101656.59;;;1.74;100.00
74065;BME280;62421;51.412;5.432;2022-12-07T06:32:19;101654.03;;;1.71;100.00
74065;BME280;62421;51.412;5.432;2022-12-07T06:34:45;101653.22;;;1.66;100.00
74065;BME280;62421;51.412;5.432;2022-12-07T06:37:11;101648.94;;;1.61;100.00
74065;BME280;62421;51.412;5.432;2022-12-07T06:39:37;101660.47;;;1.57;100.00
74065;BME280;62421;51.412;5.432;2022-12-07T06:42:02;101655.22;;;1.56;100.00
74065;BME280;62421;51.412;5.432;2022-12-07T06:44:27;101650.84;;;1.53;100.00
74065;BME280;62421;51.412;5.432;2022-12-07T06:46:53;101657.94;;;1.51;100.00
74065;BME280;62421;51.412;5.432;2022-12-07T06:49:18;101651.78;;;1.51;100.00
74065;BME280;62421;51.412;5.432;2022-12-07T06:51:44;101654.38;;;1.52;100.00
74065;BME280;62421;51.412;5.432;2022-12-07T06:54:13;101664.03;;;1.55;100.00
74065;BME280;62421;51.412;5.432;2022-12-07T06:56:39;101663.91;;;1.61;100.00
74065;BME280;62421;51.412;5.432;2022-12-07T06:59:06;101669.09;;;1.67;100.00
74065;BME280;62421;51.412;5.432;2022-12-07T07:01:33;101662.91;;;1.68;100.00
74065;BME280;62421;51.412;5.432;2022-12-07T07:03:58;101651.44;;;1.68;100.00
74065;BME280;62421;51.412;5.432;2022-12-07T07:06:24;101652.38;;;1.65;100.00
74065;BME280;62421;51.412;5.432;2022-12-07T07:08:50;101656.78;;;1.66;100.00
74065;BME280;62421;51.412;5.432;2022-12-07T07:11:15;101666.44;;;1.67;100.00
74065;BME280;62421;51.412;5.432;2022-12-07T07:13:41;101657.56;;;1.70;100.00
74065;BME280;62421;51.412;5.432;2022-12-07T07:16:06;101664.56;;;1.74;100.00
74065;BME280;62421;51.412;5.432;2022-12-07T07:18:32;101662.75;;;1.76;100.00
74065;BME280;62421;51.412;5.432;2022-12-07T07:20:57;101668.03;;;1.77;100.00
74065;BME280;62421;51.412;5.432;2022-12-07T07:23:23;101654.78;;;1.77;100.00
74065;BME280;62421;51.412;5.432;2022-12-07T07:25:49;101653.91;;;1.77;100.00
74065;BME280;62421;51.412;5.432;2022-12-07T07:28:15;101657.53;;;1.73;100.00
74065;BME280;62421;51.412;5.432;2022-12-07T07:30:40;101661.06;;;1.72;100.00
74065;BME280;62421;51.412;5.432;2022-12-07T07:33:05;101664.56;;;1.74;100.00
74065;BME280;62421;51.412;5.432;2022-12-07T07:35:33;101660.97;;;1.76;100.00
74065;BME280;62421;51.412;5.432;2022-12-07T07:37:58;101658.38;;;1.73;100.00
74065;BME280;62421;51.412;5.432;2022-12-07T07:40:24;101661.03;;;1.73;100.00
74065;BME280;62421;51.412;5.432;2022-12-07T07:42:51;101670.81;;;1.70;100.00
74065;BME280;62421;51.412;5.432;2022-12-07T07:45:17;101673.53;;;1.67;100.00
74065;BME280;62421;51.412;5.432;2022-12-07T07:47:42;101666.53;;;1.64;100.00
74065;BME280;62421;51.412;5.432;2022-12-07T07:50:08;101674.38;;;1.69;100.00
74065;BME280;62421;51.412;5.432;2022-12-07T07:52:33;101682.13;;;1.78;100.00
74065;BME280;62421;51.412;5.432;2022-12-07T07:54:58;101680.22;;;1.84;100.00
74065;BME280;62421;51.412;5.432;2022-12-07T07:57:24;101670.41;;;1.90;100.00
74065;BME280;62421;51.412;5.432;2022-12-07T07:59:49;101680.06;;;1.94;100.00
74065;BME280;62421;51.412;5.432;2022-12-07T08:02:16;101680.84;;;1.97;100.00
74065;BME280;62421;51.412;5.432;2022-12-07T08:04:43;101680.81;;;1.99;100.00
74065;BME280;62421;51.412;5.432;2022-12-07T08:07:09;101680.69;;;2.05;100.00
74065;BME280;62421;51.412;5.432;2022-12-07T08:09:35;101679.72;;;2.09;100.00
74065;BME280;62421;51.412;5.432;2022-12-07T08:12:00;101680.50;;;2.13;100.00
74065;BME280;62421;51.412;5.432;2022-12-07T08:14:26;101680.50;;;2.13;100.00
74065;BME280;62421;51.412;5.432;2022-12-07T08:16:52;101683.16;;;2.13;100.00
74065;BME280;62421;51.412;5.432;2022-12-07T08:19:18;101684.09;;;2.10;100.00
74065;BME280;62421;51.412;5.432;2022-12-07T08:21:43;101690.22;;;2.14;100.00
74065;BME280;62421;51.412;5.432;2022-12-07T08:24:08;101690.13;;;2.17;100.00
74065;BME280;62421;51.412;5.432;2022-12-07T08:26:33;101690.09;;;2.20;100.00
74065;BME280;62421;51.412;5.432;2022-12-07T08:28:59;101689.97;;;2.26;100.00
74065;BME280;62421;51.412;5.432;2022-12-07T08:31:24;101685.41;;;2.31;100.00
74065;BME280;62421;51.412;5.432;2022-12-07T08:33:50;101699.44;;;2.36;100.00
74065;BME280;62421;51.412;5.432;2022-12-07T08:36:15;101694.91;;;2.41;100.00
74065;BME280;62421;51.412;5.432;2022-12-07T08:38:41;101702.72;;;2.48;100.00
74065;BME280;62421;51.412;5.432;2022-12-07T08:41:07;101698.16;;;2.54;100.00
74065;BME280;62421;51.412;5.432;2022-12-07T08:43:33;101707.94;;;2.52;100.00
74065;BME280;62421;51.412;5.432;2022-12-07T08:46:13;101708.78;;;2.53;100.00
74065;BME280;62421;51.412;5.432;2022-12-07T08:51:35;101701.31;;;2.70;100.00
74065;BME280;62421;51.412;5.432;2022-12-07T08:54:04;101700.22;;;2.79;100.00
74065;BME280;62421;51.412;5.432;2022-12-07T08:56:31;101689.38;;;2.88;100.00
74065;BME280;62421;51.412;5.432;2022-12-07T08:58:57;101692.69;;;2.98;100.00
74065;BME280;62421;51.412;5.432;2022-12-07T09:01:23;101688.19;;;3.01;100.00
74065;BME280;62421;51.412;5.432;2022-12-07T09:03:48;101695.97;;;3.07;100.00
74065;BME280;62421;51.412;5.432;2022-12-07T09:06:13;101695.03;;;3.10;100.00
74065;BME280;62421;51.412;5.432;2022-12-07T09:08:43;101692.28;;;3.13;100.00
74065;BME280;62421;51.412;5.432;2022-12-07T09:11:10;101700.13;;;3.18;100.00
74065;BME280;62421;51.412;5.432;2022-12-07T09:13:36;101702.56;;;3.27;100.00
74065;BME280;62421;51.412;5.432;2022-12-07T09:16:01;101689.19;;;3.32;100.00
74065;BME280;62421;51.412;5.432;2022-12-07T09:18:27;101699.66;;;3.36;100.00
74065;BME280;62421;51.412;5.432;2022-12-07T09:20:52;101682.78;;;3.39;100.00
74065;BME280;62421;51.412;5.432;2022-12-07T09:23:17;101695.03;;;3.44;100.00
74065;BME280;62421;51.412;5.432;2022-12-07T09:25:43;101688.66;;;3.50;100.00
74065;BME280;62421;51.412;5.432;2022-12-07T09:28:08;101685.88;;;3.55;100.00
74065;BME280;62421;51.412;5.432;2022-12-07T09:30:34;101685.72;;;3.61;100.00
74065;BME280;62421;51.412;5.432;2022-12-07T09:32:59;101685.53;;;3.67;100.00
74065;BME280;62421;51.412;5.432;2022-12-07T09:35:24;101684.66;;;3.68;100.00
74065;BME280;62421;51.412;5.432;2022-12-07T09:37:50;101686.34;;;3.71;100.00
74065;BME280;62421;51.412;5.432;2022-12-07T09:40:17;101687.25;;;3.69;100.00
74065;BME280;62421;51.412;5.432;2022-12-07T09:42:48;101692.66;;;3.66;100.00
74065;BME280;62421;51.412;5.432;2022-12-07T09:45:18;101683.13;;;3.59;100.00
74065;BME280;62421;51.412;5.432;2022-12-07T09:47:45;101680.78;;;3.47;100.00
74065;BME280;62421;51.412;5.432;2022-12-07T09:50:15;101690.88;;;3.34;100.00
74065;BME280;62421;51.412;5.432;2022-12-07T09:52:43;101692.94;;;3.23;100.00
74065;BME280;62421;51.412;5.432;2022-12-07T09:55:13;101706.44;;;3.14;100.00
74065;BME280;62421;51.412;5.432;2022-12-07T09:57:39;101693.31;;;3.07;100.00
74065;BME280;62421;51.412;5.432;2022-12-07T10:00:12;101696.16;;;3.01;100.00
74065;BME280;62421;51.412;5.432;2022-12-07T10:02:42;101692.56;;;3.02;100.00
74065;BME280;62421;51.412;5.432;2022-12-07T10:05:18;101691.56;;;3.08;100.00
74065;BME280;62421;51.412;5.432;2022-12-07T10:07:44;101689.63;;;3.13;100.00
74065;BME280;62421;51.412;5.432;2022-12-07T10:10:15;101693.00;;;3.20;100.00
74065;BME280;62421;51.412;5.432;2022-12-07T10:12:56;101683.16;;;3.25;100.00
74065;BME280;62421;51.412;5.432;2022-12-07T10:15:22;101681.94;;;3.37;100.00
74065;BME280;62421;51.412;5.432;2022-12-07T10:17:51;101673.66;;;3.49;100.00
74065;BME280;62421;51.412;5.432;2022-12-07T10:20:23;101666.28;;;3.59;100.00
74065;BME280;62421;51.412;5.432;2022-12-07T10:22:56;101670.59;;;3.63;100.00
74065;BME280;62421;51.412;5.432;2022-12-07T10:25:23;101670.56;;;3.64;100.00
74065;BME280;62421;51.412;5.432;2022-12-07T10:28:18;101663.34;;;3.69;100.00
74065;BME280;62421;51.412;5.432;2022-12-07T10:30:56;101658.78;;;3.75;100.00
74065;BME280;62421;51.412;5.432;2022-12-07T10:33:34;101649.66;;;3.83;100.00
74065;BME280;62421;51.412;5.432;2022-12-07T10:36:01;101644.03;;;3.94;100.00
74065;BME280;62421;51.412;5.432;2022-12-07T10:38:45;101646.44;;;4.02;100.00
74065;BME280;62421;51.412;5.432;2022-12-07T10:41:11;101641.06;;;4.05;100.00
74065;BME280;62421;51.412;5.432;2022-12-07T10:43:36;101641.06;;;4.05;100.00
74065;BME280;62421;51.412;5.432;2022-12-07T10:49:35;101636.78;;;3.99;100.00
74065;BME280;62421;51.412;5.432;2022-12-07T10:57:41;101631.84;;;3.87;100.00
74065;BME280;62421;51.412;5.432;2022-12-07T11:00:20;101626.63;;;3.84;100.00
74065;BME280;62421;51.412;5.432;2022-12-07T11:05:45;101624.88;;;3.83;100.00
74065;BME280;62421;51.412;5.432;2022-12-07T11:08:39;101619.38;;;3.89;100.00
74065;BME280;62421;51.412;5.432;2022-12-07T11:11:16;101613.06;;;3.93;100.00
74065;BME280;62421;51.412;5.432;2022-12-07T11:13:56;101611.97;;;4.00;100.00
74065;BME280;62421;51.412;5.432;2022-12-07T11:22:43;101602.03;;;4.62;100.00
74065;BME280;62421;51.412;5.432;2022-12-07T11:28:23;101591.50;;;5.10;100.00
74065;BME280;62421;51.412;5.432;2022-12-07T11:33:42;101587.94;;;5.35;100.00
74065;BME280;62421;51.412;5.432;2022-12-07T11:36:23;101583.84;;;5.50;100.00
74065;BME280;62421;51.412;5.432;2022-12-07T11:38:56;101581.59;;;5.63;100.00
74065;BME280;62421;51.412;5.432;2022-12-07T11:41:27;101574.38;;;5.66;100.00
74065;BME280;62421;51.412;5.432;2022-12-07T11:46:47;101578.53;;;5.73;100.00
74065;BME280;62421;51.412;5.432;2022-12-07T11:49:51;101570.44;;;5.77;100.00
74065;BME280;62421;51.412;5.432;2022-12-07T11:52:43;101570.25;;;5.81;100.00
74065;BME280;62421;51.412;5.432;2022-12-07T11:55:52;101569.31;;;5.82;100.00
74065;BME280;62421;51.412;5.432;2022-12-07T12:00:48;101570.97;;;5.85;100.00
74065;BME280;62421;51.412;5.432;2022-12-07T12:03:23;101578.75;;;5.91;100.00
74065;BME280;62421;51.412;5.432;2022-12-07T12:05:55;101567.09;;;5.93;100.00
74065;BME280;62421;51.412;5.432;2022-12-07T12:08:26;101574.19;;;5.94;100.00
74065;BME280;62421;51.412;5.432;2022-12-07T12:11:00;101570.59;;;5.95;100.00
74065;BME280;62421;51.412;5.432;2022-12-07T12:16:24;101572.91;;;5.81;98.11
74065;BME280;62421;51.412;5.432;2022-12-07T12:22:05;101567.19;;;5.68;99.41
74065;BME280;62421;51.412;5.432;2022-12-07T12:24:33;101560.22;;;5.64;99.45
74065;BME280;62421;51.412;5.432;2022-12-07T12:27:08;101554.94;;;5.63;100.00
74065;BME280;62421;51.412;5.432;2022-12-07T12:29:37;101553.91;;;5.67;100.00
74065;BME280;62421;51.412;5.432;2022-12-07T12:32:19;101545.72;;;5.71;99.94
74065;BME280;62421;51.412;5.432;2022-12-07T12:34:59;101544.06;;;5.69;100.00
74065;BME280;62421;51.412;5.432;2022-12-07T12:42:52;101531.91;;;5.38;100.00
74065;BME280;62421;51.412;5.432;2022-12-07T12:45:29;101523.97;;;5.37;100.00
74065;BME280;62421;51.412;5.432;2022-12-07T12:48:30;101522.19;;;5.37;100.00
74065;BME280;62421;51.412;5.432;2022-12-07T12:51:36;101524.75;;;5.40;100.00
74065;BME280;62421;51.412;5.432;2022-12-07T12:54:20;101502.41;;;5.44;100.00
74065;BME280;62421;51.412;5.432;2022-12-07T12:57:03;101519.34;;;5.42;100.00
74065;BME280;62421;51.412;5.432;2022-12-07T12:59:33;101507.88;;;5.40;100.00
74065;BME280;62421;51.412;5.432;2022-12-07T13:07:04;101507.88;;;5.40;100.00
74065;BME280;62421;51.412;5.432;2022-12-07T13:09:34;101509.50;;;5.44;100.00
74065;BME280;62421;51.412;5.432;2022-12-07T13:12:13;101502.03;;;5.53;100.00
74065;BME280;62421;51.412;5.432;2022-12-07T13:17:09;101497.81;;;5.70;100.00
74065;BME280;62421;51.412;5.432;2022-12-07T13:22:46;101492.34;;;5.74;100.00
74065;BME280;62421;51.412;5.432;2022-12-07T13:25:18;101488.88;;;5.72;100.00
74065;BME280;62421;51.412;5.432;2022-12-07T13:27:54;101488.16;;;5.67;100.00
74065;BME280;62421;51.412;5.432;2022-12-07T13:30:22;101482.97;;;5.64;100.00
74065;BME280;62421;51.412;5.432;2022-12-07T13:32:58;101476.94;;;5.59;100.00
74065;BME280;62421;51.412;5.432;2022-12-07T13:37:53;101474.13;;;5.40;99.72
74065;BME280;62421;51.412;5.432;2022-12-07T13:40:21;101469.44;;;5.23;100.00
74065;BME280;62421;51.412;5.432;2022-12-07T13:42:47;101474.41;;;5.09;100.00
74065;BME280;62421;51.412;5.432;2022-12-07T13:45:27;101471.28;;;4.98;100.00
74065;BME280;62421;51.412;5.432;2022-12-07T13:48:30;101469.22;;;4.81;100.00
74065;BME280;62421;51.412;5.432;2022-12-07T13:50:58;101466.09;;;4.69;100.00
74065;BME280;62421;51.412;5.432;2022-12-07T13:53:24;101466.34;;;4.62;100.00
74065;BME280;62421;51.412;5.432;2022-12-07T13:55:50;101462.88;;;4.60;100.00
74065;BME280;62421;51.412;5.432;2022-12-07T13:58:15;101462.97;;;4.58;100.00
74065;BME280;62421;51.412;5.432;2022-12-07T14:00:42;101470.78;;;4.63;100.00
74065;BME280;62421;51.412;5.432;2022-12-07T14:05:43;101460.09;;;4.88;100.00
74065;BME280;62421;51.412;5.432;2022-12-07T14:10:35;101456.47;;;5.14;100.00
74065;BME280;62421;51.412;5.432;2022-12-07T14:13:03;101453.47;;;5.23;100.00
74065;BME280;62421;51.412;5.432;2022-12-07T14:15:34;101455.94;;;5.28;100.00
74065;BME280;62421;51.412;5.432;2022-12-07T14:18:02;101456.00;;;5.26;100.00
74065;BME280;62421;51.412;5.432;2022-12-07T14:20:37;101441.03;;;5.24;100.00
74065;BME280;62421;51.412;5.432;2022-12-07T14:23:04;101442.88;;;5.22;100.00
74065;BME280;62421;51.412;5.432;2022-12-07T14:25:50;101438.31;;;5.25;100.00
74065;BME280;62421;51.412;5.432;2022-12-07T14:28:32;101433.72;;;5.29;100.00
74065;BME280;62421;51.412;5.432;2022-12-07T14:30:58;101435.41;;;5.31;100.00
74065;BME280;62421;51.412;5.432;2022-12-07T14:33:24;101437.19;;;5.31;100.00
74065;BME280;62421;51.412;5.432;2022-12-07T14:35:50;101431.00;;;5.30;100.00
74065;BME280;62421;51.412;5.432;2022-12-07T14:38:20;101432.03;;;5.26;100.00